sensor_id;sensor_type;location;lat;lon;timestamp;temperature;humidity
8261;DHT22;64115;50.170;8.242;2023-11-19T00:01:05;7.20;99.90
8261;DHT22;64115;50.170;8.242;2023-11-19T00:03:33;7.30;99.90
8261;DHT22;64115;50.170;8.242;2023-11-19T00:06:00;7.30;99.90
8261;DHT22;64115;50.170;8.242;2023-11-19T00:08:29;7.30;99.90
8261;DHT22;64115;50.170;8.242;2023-11-19T00:10:56;7.40;99.90
8261;DHT22;64115;50.170;8.242;2023-11-19T00:13:22;7.40;99.90
8261;DHT22;64115;50.170;8.242;2023-11-19T00:15:51;7.40;99.90
8261;DHT22;64115;50.170;8.242;2023-11-19T00:18:18;7.40;99.90
8261;DHT22;64115;50.170;8.242;2023-11-19T00:20:45;7.40;99.90
8261;DHT22;64115;50.170;8.242;2023-11-19T00:23:11;7.40;99.90
8261;DHT22;64115;50.170;8.242;2023-11-19T00:25:39;7.40;99.90
8261;DHT22;64115;50.170;8.242;2023-11-19T00:28:06;7.40;99.90
8261;DHT22;64115;50.170;8.242;2023-11-19T00:30:33;7.40;99.90
8261;DHT22;64115;50.170;8.242;2023-11-19T00:33:00;7.40;99.90
8261;DHT22;64115;50.170;8.242;2023-11-19T00:35:26;7.40;99.90
8261;DHT22;64115;50.170;8.242;2023-11-19T00:37:53;7.40;99.90
8261;DHT22;64115;50.170;8.242;2023-11-19T00:40:20;7.40;99.90
8261;DHT22;64115;50.170;8.242;2023-11-19T00:42:49;7.40;99.90
8261;DHT22;64115;50.170;8.242;2023-11-19T00:45:16;7.50;99.90
8261;DHT22;64115;50.170;8.242;2023-11-19T00:47:43;7.50;99.90
8261;DHT22;64115;50.170;8.242;2023-11-19T00:50:10;7.50;99.90
8261;DHT22;64115;50.170;8.242;2023-11-19T00:52:38;7.50;99.90
8261;DHT22;64115;50.170;8.242;2023-11-19T00:55:06;7.50;99.90
8261;DHT22;64115;50.170;8.242;2023-11-19T00:57:32;7.50;99.90
8261;DHT22;64115;50.170;8.242;2023-11-19T01:00:01;7.50;99.90
8261;DHT22;64115;50.170;8.242;2023-11-19T01:02:32;7.50;99.90
8261;DHT22;64115;50.170;8.242;2023-11-19T01:05:00;7.60;99.90
8261;DHT22;64115;50.170;8.242;2023-11-19T01:07:26;7.60;99.90
8261;DHT22;64115;50.170;8.242;2023-11-19T01:09:53;7.60;99.90
8261;DHT22;64115;50.170;8.242;2023-11-19T01:12:20;7.60;99.90
8261;DHT22;64115;50.170;8.242;2023-11-19T01:14:46;7.60;99.90
8261;DHT22;64115;50.170;8.242;2023-11-19T01:17:14;7.60;99.90
8261;DHT22;64115;50.170;8.242;2023-11-19T01:19:41;7.50;99.90
8261;DHT22;64115;50.170;8.242;2023-11-19T01:22:08;7.60;99.90
8261;DHT22;64115;50.170;8.242;2023-11-19T01:24:35;7.60;99.90
8261;DHT22;64115;50.170;8.242;2023-11-19T01:27:02;7.60;99.90
8261;DHT22;64115;50.170;8.242;2023-11-19T01:29:28;7.50;99.90
8261;DHT22;64115;50.170;8.242;2023-11-19T01:31:55;7.60;99.90
8261;DHT22;64115;50.170;8.242;2023-11-19T01:34:23;7.60;99.90
8261;DHT22;64115;50.170;8.242;2023-11-19T01:36:50;7.60;99.90
8261;DHT22;64115;50.170;8.242;2023-11-19T01:39:17;7.60;99.90
8261;DHT22;64115;50.170;8.242;2023-11-19T01:41:45;7.50;99.90
8261;DHT22;64115;50.170;8.242;2023-11-19T01:44:12;7.60;99.90
8261;DHT22;64115;50.170;8.242;2023-11-19T01:46:40;7.60;99.90
8261;DHT22;64115;50.170;8.242;2023-11-19T01:49:08;7.60;99.90
8261;DHT22;64115;50.170;8.242;2023-11-19T01:51:38;7.60;99.90
8261;DHT22;64115;50.170;8.242;2023-11-19T01:54:06;7.60;99.90
8261;DHT22;64115;50.170;8.242;2023-11-19T01:56:34;7.60;99.90
8261;DHT22;64115;50.170;8.242;2023-11-19T01:59:01;7.70;99.90
8261;DHT22;64115;50.170;8.242;2023-11-19T02:01:29;7.70;99.90
8261;DHT22;64115;50.170;8.242;2023-11-19T02:03:58;7.70;99.90
8261;DHT22;64115;50.170;8.242;2023-11-19T02:06:26;7.70;99.90
8261;DHT22;64115;50.170;8.242;2023-11-19T02:08:55;7.70;99.90
8261;DHT22;64115;50.170;8.242;2023-11-19T02:11:22;7.70;99.90
8261;DHT22;64115;50.170;8.242;2023-11-19T02:13:49;7.80;99.90
8261;DHT22;64115;50.170;8.242;2023-11-19T02:16:16;7.80;99.90
8261;DHT22;64115;50.170;8.242;2023-11-19T02:18:43;7.90;99.90
8261;DHT22;64115;50.170;8.242;2023-11-19T02:21:09;7.90;99.90
8261;DHT22;64115;50.170;8.242;2023-11-19T02:23:37;7.90;99.90
8261;DHT22;64115;50.170;8.242;2023-11-19T02:26:13;7.90;99.90
8261;DHT22;64115;50.170;8.242;2023-11-19T02:28:43;7.90;99.90
8261;DHT22;64115;50.170;8.242;2023-11-19T02:31:10;8.00;99.90
8261;DHT22;64115;50.170;8.242;2023-11-19T02:33:37;8.00;99.90
8261;DHT22;64115;50.170;8.242;2023-11-19T02:36:04;8.00;99.90
8261;DHT22;64115;50.170;8.242;2023-11-19T02:38:32;8.00;99.90
8261;DHT22;64115;50.170;8.242;2023-11-19T02:41:00;8.00;99.90
8261;DHT22;64115;50.170;8.242;2023-11-19T02:43:27;7.90;99.90
8261;DHT22;64115;50.170;8.242;2023-11-19T02:45:59;7.90;99.90
8261;DHT22;64115;50.170;8.242;2023-11-19T02:48:26;8.00;99.90
8261;DHT22;64115;50.170;8.242;2023-11-19T02:50:53;8.00;99.90
8261;DHT22;64115;50.170;8.242;2023-11-19T02:53:20;8.00;99.90
8261;DHT22;64115;50.170;8.242;2023-11-19T02:55:47;8.00;99.90
8261;DHT22;64115;50.170;8.242;2023-11-19T02:58:15;8.00;99.90
8261;DHT22;64115;50.170;8.242;2023-11-19T03:00:49;8.10;99.90
8261;DHT22;64115;50.170;8.242;2023-11-19T03:03:25;8.00;99.90
8261;DHT22;64115;50.170;8.242;2023-11-19T03:05:56;8.00;99.90
8261;DHT22;64115;50.170;8.242;2023-11-19T03:08:23;8.00;99.90
8261;DHT22;64115;50.170;8.242;2023-11-19T03:10:49;8.10;99.90
8261;DHT22;64115;50.170;8.242;2023-11-19T03:13:16;8.10;99.90
8261;DHT22;64115;50.170;8.242;2023-11-19T03:15:43;8.10;99.90
8261;DHT22;64115;50.170;8.242;2023-11-19T03:18:10;8.10;99.90
8261;DHT22;64115;50.170;8.242;2023-11-19T03:20:38;8.10;99.90
8261;DHT22;64115;50.170;8.242;2023-11-19T03:23:05;8.10;99.90
8261;DHT22;64115;50.170;8.242;2023-11-19T03:25:32;8.10;99.90
8261;DHT22;64115;50.170;8.242;2023-11-19T03:28:00;8.10;99.90
8261;DHT22;64115;50.170;8.242;2023-11-19T03:30:27;8.10;99.90
8261;DHT22;64115;50.170;8.242;2023-11-19T03:32:54;8.10;99.90
8261;DHT22;64115;50.170;8.242;2023-11-19T03:35:22;8.20;99.90
8261;DHT22;64115;50.170;8.242;2023-11-19T03:37:50;8.20;99.90
8261;DHT22;64115;50.170;8.242;2023-11-19T03:40:18;8.20;99.90
8261;DHT22;64115;50.170;8.242;2023-11-19T03:42:45;8.20;99.90
8261;DHT22;64115;50.170;8.242;2023-11-19T03:45:12;8.30;99.90
8261;DHT22;64115;50.170;8.242;2023-11-19T03:47:40;8.30;99.90
8261;DHT22;64115;50.170;8.242;2023-11-19T03:50:07;8.30;99.90
8261;DHT22;64115;50.170;8.242;2023-11-19T03:52:34;8.30;99.90
8261;DHT22;64115;50.170;8.242;2023-11-19T03:55:02;8.30;99.90
8261;DHT22;64115;50.170;8.242;2023-11-19T03:57:30;8.30;99.90
8261;DHT22;64115;50.170;8.242;2023-11-19T03:59:59;8.40;99.90
8261;DHT22;64115;50.170;8.242;2023-11-19T04:02:31;8.40;99.90
8261;DHT22;64115;50.170;8.242;2023-11-19T04:04:57;8.40;99.90
8261;DHT22;64115;50.170;8.242;2023-11-19T04:07:24;8.50;99.90
8261;DHT22;64115;50.170;8.242;2023-11-19T04:09:51;8.50;99.90
8261;DHT22;64115;50.170;8.242;2023-11-19T04:12:19;8.50;99.90
8261;DHT22;64115;50.170;8.242;2023-11-19T04:14:47;8.60;99.90
8261;DHT22;64115;50.170;8.242;2023-11-19T04:17:14;8.60;99.90
8261;DHT22;64115;50.170;8.242;2023-11-19T04:19:40;8.60;99.90
8261;DHT22;64115;50.170;8.242;2023-11-19T04:22:09;8.70;99.90
8261;DHT22;64115;50.170;8.242;2023-11-19T04:24:36;8.70;99.90
8261;DHT22;64115;50.170;8.242;2023-11-19T04:27:04;8.70;99.90
8261;DHT22;64115;50.170;8.242;2023-11-19T04:29:33;8.70;99.90
8261;DHT22;64115;50.170;8.242;2023-11-19T04:31:59;8.80;99.90
8261;DHT22;64115;50.170;8.242;2023-11-19T04:34:26;8.80;99.90
8261;DHT22;64115;50.170;8.242;2023-11-19T04:36:53;8.80;99.90
8261;DHT22;64115;50.170;8.242;2023-11-19T04:39:20;8.80;99.90
8261;DHT22;64115;50.170;8.242;2023-11-19T04:41:48;8.80;99.90
8261;DHT22;64115;50.170;8.242;2023-11-19T04:44:15;8.80;99.90
8261;DHT22;64115;50.170;8.242;2023-11-19T04:46:44;8.90;99.90
8261;DHT22;64115;50.170;8.242;2023-11-19T04:49:11;8.90;99.90
8261;DHT22;64115;50.170;8.242;2023-11-19T04:51:39;8.90;99.90
8261;DHT22;64115;50.170;8.242;2023-11-19T04:54:07;9.00;99.90
8261;DHT22;64115;50.170;8.242;2023-11-19T04:56:34;8.90;99.90
8261;DHT22;64115;50.170;8.242;2023-11-19T04:59:01;8.90;99.90
8261;DHT22;64115;50.170;8.242;2023-11-19T05:01:28;8.90;99.90
8261;DHT22;64115;50.170;8.242;2023-11-19T05:03:56;8.90;99.90
8261;DHT22;64115;50.170;8.242;2023-11-19T05:06:26;8.90;99.90
8261;DHT22;64115;50.170;8.242;2023-11-19T05:08:53;8.90;99.90
8261;DHT22;64115;50.170;8.242;2023-11-19T05:11:20;8.90;99.90
8261;DHT22;64115;50.170;8.242;2023-11-19T05:13:47;8.90;99.90
8261;DHT22;64115;50.170;8.242;2023-11-19T05:16:14;9.00;99.90
8261;DHT22;64115;50.170;8.242;2023-11-19T05:18:40;9.00;99.90
8261;DHT22;64115;50.170;8.242;2023-11-19T05:21:08;9.00;99.90
8261;DHT22;64115;50.170;8.242;2023-11-19T05:23:35;9.00;99.90
8261;DHT22;64115;50.170;8.242;2023-11-19T05:26:02;9.10;99.90
8261;DHT22;64115;50.170;8.242;2023-11-19T05:28:29;9.10;99.90
8261;DHT22;64115;50.170;8.242;2023-11-19T05:30:56;9.10;99.90
8261;DHT22;64115;50.170;8.242;2023-11-19T05:33:22;9.20;99.90
8261;DHT22;64115;50.170;8.242;2023-11-19T05:35:49;9.20;99.90
8261;DHT22;64115;50.170;8.242;2023-11-19T05:38:17;9.20;99.90
8261;DHT22;64115;50.170;8.242;2023-11-19T05:40:44;9.20;99.90
8261;DHT22;64115;50.170;8.242;2023-11-19T05:43:13;9.20;99.90
8261;DHT22;64115;50.170;8.242;2023-11-19T05:45:42;9.30;99.90
8261;DHT22;64115;50.170;8.242;2023-11-19T05:48:09;9.30;99.90
8261;DHT22;64115;50.170;8.242;2023-11-19T05:50:36;9.30;99.90
8261;DHT22;64115;50.170;8.242;2023-11-19T05:53:02;9.40;99.90
8261;DHT22;64115;50.170;8.242;2023-11-19T05:55:33;9.40;99.90
8261;DHT22;64115;50.170;8.242;2023-11-19T05:58:01;9.50;99.90
8261;DHT22;64115;50.170;8.242;2023-11-19T06:00:28;9.60;99.90
8261;DHT22;64115;50.170;8.242;2023-11-19T06:02:56;9.60;99.90
8261;DHT22;64115;50.170;8.242;2023-11-19T06:05:22;9.60;99.90
8261;DHT22;64115;50.170;8.242;2023-11-19T06:07:49;9.60;99.90
8261;DHT22;64115;50.170;8.242;2023-11-19T06:10:16;9.60;99.90
8261;DHT22;64115;50.170;8.242;2023-11-19T06:12:46;9.60;99.90
8261;DHT22;64115;50.170;8.242;2023-11-19T06:15:13;9.60;99.90
8261;DHT22;64115;50.170;8.242;2023-11-19T06:17:40;9.60;99.90
8261;DHT22;64115;50.170;8.242;2023-11-19T06:20:07;9.60;99.90
8261;DHT22;64115;50.170;8.242;2023-11-19T06:22:35;9.60;99.90
8261;DHT22;64115;50.170;8.242;2023-11-19T06:25:02;9.60;99.90
8261;DHT22;64115;50.170;8.242;2023-11-19T06:27:32;9.60;99.90
8261;DHT22;64115;50.170;8.242;2023-11-19T06:30:00;9.60;99.90
8261;DHT22;64115;50.170;8.242;2023-11-19T06:32:27;9.70;99.90
8261;DHT22;64115;50.170;8.242;2023-11-19T06:34:54;9.70;99.90
8261;DHT22;64115;50.170;8.242;2023-11-19T06:37:21;9.70;99.90
8261;DHT22;64115;50.170;8.242;2023-11-19T06:39:48;9.70;99.90
8261;DHT22;64115;50.170;8.242;2023-11-19T06:42:15;9.80;99.90
8261;DHT22;64115;50.170;8.242;2023-11-19T06:44:42;9.80;99.90
8261;DHT22;64115;50.170;8.242;2023-11-19T06:47:10;9.80;99.90
8261;DHT22;64115;50.170;8.242;2023-11-19T06:49:37;9.90;99.90
8261;DHT22;64115;50.170;8.242;2023-11-19T06:52:04;9.90;99.90
8261;DHT22;64115;50.170;8.242;2023-11-19T06:54:31;9.90;99.90
8261;DHT22;64115;50.170;8.242;2023-11-19T06:56:58;9.90;99.90
8261;DHT22;64115;50.170;8.242;2023-11-19T06:59:25;9.70;99.90
8261;DHT22;64115;50.170;8.242;2023-11-19T07:01:52;9.70;99.90
8261;DHT22;64115;50.170;8.242;2023-11-19T07:04:20;9.60;99.90
8261;DHT22;64115;50.170;8.242;2023-11-19T07:06:46;9.60;99.90
8261;DHT22;64115;50.170;8.242;2023-11-19T07:09:14;9.60;99.90
8261;DHT22;64115;50.170;8.242;2023-11-19T07:11:41;9.60;99.90
8261;DHT22;64115;50.170;8.242;2023-11-19T07:14:09;9.60;99.90
8261;DHT22;64115;50.170;8.242;2023-11-19T07:16:37;9.70;99.90
8261;DHT22;64115;50.170;8.242;2023-11-19T07:19:04;9.70;99.90
8261;DHT22;64115;50.170;8.242;2023-11-19T07:21:32;9.80;99.90
8261;DHT22;64115;50.170;8.242;2023-11-19T07:23:59;9.80;99.90
8261;DHT22;64115;50.170;8.242;2023-11-19T07:26:26;9.90;99.90
8261;DHT22;64115;50.170;8.242;2023-11-19T07:28:53;9.90;99.90
8261;DHT22;64115;50.170;8.242;2023-11-19T07:31:21;9.90;99.90
8261;DHT22;64115;50.170;8.242;2023-11-19T07:33:49;9.90;99.90
8261;DHT22;64115;50.170;8.242;2023-11-19T07:36:16;9.90;99.90
8261;DHT22;64115;50.170;8.242;2023-11-19T07:38:45;9.90;99.90
8261;DHT22;64115;50.170;8.242;2023-11-19T07:41:12;9.90;99.90
8261;DHT22;64115;50.170;8.242;2023-11-19T07:43:39;9.90;99.90
8261;DHT22;64115;50.170;8.242;2023-11-19T07:46:10;10.00;99.90
8261;DHT22;64115;50.170;8.242;2023-11-19T07:48:38;10.00;99.90
8261;DHT22;64115;50.170;8.242;2023-11-19T07:51:05;10.00;99.90
8261;DHT22;64115;50.170;8.242;2023-11-19T07:53:32;10.00;99.90
8261;DHT22;64115;50.170;8.242;2023-11-19T07:56:01;10.00;99.90
8261;DHT22;64115;50.170;8.242;2023-11-19T07:58:27;10.00;99.90
8261;DHT22;64115;50.170;8.242;2023-11-19T08:00:54;10.10;99.90
8261;DHT22;64115;50.170;8.242;2023-11-19T08:03:21;10.10;99.90
8261;DHT22;64115;50.170;8.242;2023-11-19T08:05:48;10.10;99.90
8261;DHT22;64115;50.170;8.242;2023-11-19T08:08:15;10.10;99.90
8261;DHT22;64115;50.170;8.242;2023-11-19T08:10:42;10.20;99.90
8261;DHT22;64115;50.170;8.242;2023-11-19T08:13:11;10.20;99.90
8261;DHT22;64115;50.170;8.242;2023-11-19T08:15:38;10.20;99.90
8261;DHT22;64115;50.170;8.242;2023-11-19T08:18:04;10.30;99.90
8261;DHT22;64115;50.170;8.242;2023-11-19T08:20:32;10.30;99.90
8261;DHT22;64115;50.170;8.242;2023-11-19T08:22:59;10.30;99.90
8261;DHT22;64115;50.170;8.242;2023-11-19T08:25:26;10.30;99.90
8261;DHT22;64115;50.170;8.242;2023-11-19T08:27:53;10.30;99.90
8261;DHT22;64115;50.170;8.242;2023-11-19T08:30:21;10.30;99.90
8261;DHT22;64115;50.170;8.242;2023-11-19T08:32:48;10.30;99.90
8261;DHT22;64115;50.170;8.242;2023-11-19T08:35:15;10.30;99.90
8261;DHT22;64115;50.170;8.242;2023-11-19T08:37:42;10.30;99.90
8261;DHT22;64115;50.170;8.242;2023-11-19T08:40:11;10.30;99.90
8261;DHT22;64115;50.170;8.242;2023-11-19T08:42:38;10.30;99.90
8261;DHT22;64115;50.170;8.242;2023-11-19T08:45:05;10.30;99.90
8261;DHT22;64115;50.170;8.242;2023-11-19T08:47:34;10.20;99.90
8261;DHT22;64115;50.170;8.242;2023-11-19T08:50:01;10.10;99.90
8261;DHT22;64115;50.170;8.242;2023-11-19T08:52:29;10.10;99.90
8261;DHT22;64115;50.170;8.242;2023-11-19T08:54:56;10.10;99.90
8261;DHT22;64115;50.170;8.242;2023-11-19T08:57:22;10.10;99.90
8261;DHT22;64115;50.170;8.242;2023-11-19T08:59:49;10.00;99.90
8261;DHT22;64115;50.170;8.242;2023-11-19T09:02:16;10.00;99.90
8261;DHT22;64115;50.170;8.242;2023-11-19T09:04:45;9.90;99.90
8261;DHT22;64115;50.170;8.242;2023-11-19T09:07:12;9.90;99.90
8261;DHT22;64115;50.170;8.242;2023-11-19T09:09:38;10.00;99.90
8261;DHT22;64115;50.170;8.242;2023-11-19T09:12:06;10.00;99.90
8261;DHT22;64115;50.170;8.242;2023-11-19T09:14:33;10.10;99.90
8261;DHT22;64115;50.170;8.242;2023-11-19T09:17:00;10.20;99.90
8261;DHT22;64115;50.170;8.242;2023-11-19T09:19:26;10.20;99.90
8261;DHT22;64115;50.170;8.242;2023-11-19T09:21:54;10.20;99.90
8261;DHT22;64115;50.170;8.242;2023-11-19T09:24:21;10.30;99.90
8261;DHT22;64115;50.170;8.242;2023-11-19T09:26:48;10.30;99.90
8261;DHT22;64115;50.170;8.242;2023-11-19T09:29:15;10.40;99.90
8261;DHT22;64115;50.170;8.242;2023-11-19T09:31:42;10.40;99.90
8261;DHT22;64115;50.170;8.242;2023-11-19T09:34:08;10.60;99.90
8261;DHT22;64115;50.170;8.242;2023-11-19T09:36:35;10.60;99.90
8261;DHT22;64115;50.170;8.242;2023-11-19T09:39:04;10.60;99.90
8261;DHT22;64115;50.170;8.242;2023-11-19T09:41:32;10.60;99.90
8261;DHT22;64115;50.170;8.242;2023-11-19T09:44:00;10.60;99.90
8261;DHT22;64115;50.170;8.242;2023-11-19T09:46:28;10.50;99.90
8261;DHT22;64115;50.170;8.242;2023-11-19T09:48:57;10.50;99.90
8261;DHT22;64115;50.170;8.242;2023-11-19T09:51:25;10.50;99.90
8261;DHT22;64115;50.170;8.242;2023-11-19T09:53:51;10.50;99.90
8261;DHT22;64115;50.170;8.242;2023-11-19T09:56:20;10.50;99.90
8261;DHT22;64115;50.170;8.242;2023-11-19T09:58:47;10.60;99.90
8261;DHT22;64115;50.170;8.242;2023-11-19T10:01:14;10.60;99.90
8261;DHT22;64115;50.170;8.242;2023-11-19T10:03:41;10.70;99.90
8261;DHT22;64115;50.170;8.242;2023-11-19T10:06:09;10.70;99.90
8261;DHT22;64115;50.170;8.242;2023-11-19T10:08:37;10.80;99.90
8261;DHT22;64115;50.170;8.242;2023-11-19T10:11:05;10.90;99.90
8261;DHT22;64115;50.170;8.242;2023-11-19T10:13:35;10.90;99.90
8261;DHT22;64115;50.170;8.242;2023-11-19T10:16:04;11.00;99.90
8261;DHT22;64115;50.170;8.242;2023-11-19T10:18:33;11.00;99.90
8261;DHT22;64115;50.170;8.242;2023-11-19T10:21:04;11.00;99.90
8261;DHT22;64115;50.170;8.242;2023-11-19T10:23:31;11.10;99.90
8261;DHT22;64115;50.170;8.242;2023-11-19T10:26:03;11.10;99.90
8261;DHT22;64115;50.170;8.242;2023-11-19T10:28:39;11.10;99.90
8261;DHT22;64115;50.170;8.242;2023-11-19T10:31:08;11.10;99.90
8261;DHT22;64115;50.170;8.242;2023-11-19T10:33:35;11.10;99.90
8261;DHT22;64115;50.170;8.242;2023-11-19T10:36:02;11.20;99.90
8261;DHT22;64115;50.170;8.242;2023-11-19T10:38:29;11.10;99.90
8261;DHT22;64115;50.170;8.242;2023-11-19T10:40:56;11.20;99.90
8261;DHT22;64115;50.170;8.242;2023-11-19T10:43:24;11.30;99.90
8261;DHT22;64115;50.170;8.242;2023-11-19T10:45:52;11.30;99.90
8261;DHT22;64115;50.170;8.242;2023-11-19T10:48:19;11.20;99.90
8261;DHT22;64115;50.170;8.242;2023-11-19T10:50:53;11.20;99.90
8261;DHT22;64115;50.170;8.242;2023-11-19T10:53:20;11.20;99.90
8261;DHT22;64115;50.170;8.242;2023-11-19T10:55:48;11.20;99.90
8261;DHT22;64115;50.170;8.242;2023-11-19T10:58:16;11.10;99.90
8261;DHT22;64115;50.170;8.242;2023-11-19T11:00:44;11.10;99.90
8261;DHT22;64115;50.170;8.242;2023-11-19T11:03:16;11.10;99.90
8261;DHT22;64115;50.170;8.242;2023-11-19T11:05:44;11.10;99.90
8261;DHT22;64115;50.170;8.242;2023-11-19T11:08:13;11.20;99.90
8261;DHT22;64115;50.170;8.242;2023-11-19T11:10:48;11.30;99.90
8261;DHT22;64115;50.170;8.242;2023-11-19T11:13:19;11.40;99.90
8261;DHT22;64115;50.170;8.242;2023-11-19T11:15:46;11.50;99.90
8261;DHT22;64115;50.170;8.242;2023-11-19T11:18:14;11.60;99.90
8261;DHT22;64115;50.170;8.242;2023-11-19T11:20:41;11.60;99.90
8261;DHT22;64115;50.170;8.242;2023-11-19T11:23:28;11.50;99.90
8261;DHT22;64115;50.170;8.242;2023-11-19T11:26:06;11.50;99.90
8261;DHT22;64115;50.170;8.242;2023-11-19T11:28:43;11.40;99.90
8261;DHT22;64115;50.170;8.242;2023-11-19T11:31:23;11.40;99.90
8261;DHT22;64115;50.170;8.242;2023-11-19T11:36:53;11.40;99.90
8261;DHT22;64115;50.170;8.242;2023-11-19T11:39:22;11.50;99.90
8261;DHT22;64115;50.170;8.242;2023-11-19T11:45:02;11.60;99.90
8261;DHT22;64115;50.170;8.242;2023-11-19T11:50:34;11.60;99.90
8261;DHT22;64115;50.170;8.242;2023-11-19T11:53:15;11.60;99.90
8261;DHT22;64115;50.170;8.242;2023-11-19T11:55:53;11.60;99.90
8261;DHT22;64115;50.170;8.242;2023-11-19T11:58:25;11.60;99.90
8261;DHT22;64115;50.170;8.242;2023-11-19T12:00:52;11.60;99.90
8261;DHT22;64115;50.170;8.242;2023-11-19T12:03:20;11.60;99.90
8261;DHT22;64115;50.170;8.242;2023-11-19T12:05:49;11.60;99.90
8261;DHT22;64115;50.170;8.242;2023-11-19T12:08:19;11.60;99.90
8261;DHT22;64115;50.170;8.242;2023-11-19T12:10:48;11.70;99.90
8261;DHT22;64115;50.170;8.242;2023-11-19T12:13:16;11.70;99.90
8261;DHT22;64115;50.170;8.242;2023-11-19T12:16:09;11.70;99.90
8261;DHT22;64115;50.170;8.242;2023-11-19T12:18:39;11.70;99.90
8261;DHT22;64115;50.170;8.242;2023-11-19T12:21:07;11.80;99.90
8261;DHT22;64115;50.170;8.242;2023-11-19T12:23:44;11.80;99.90
8261;DHT22;64115;50.170;8.242;2023-11-19T12:26:32;11.90;99.90
8261;DHT22;64115;50.170;8.242;2023-11-19T12:29:00;12.00;99.90
8261;DHT22;64115;50.170;8.242;2023-11-19T12:31:29;12.10;99.90
8261;DHT22;64115;50.170;8.242;2023-11-19T12:33:56;12.30;99.90
8261;DHT22;64115;50.170;8.242;2023-11-19T12:36:24;12.30;99.90
8261;DHT22;64115;50.170;8.242;2023-11-19T12:38:51;12.50;99.90
8261;DHT22;64115;50.170;8.242;2023-11-19T12:41:18;12.50;99.90
8261;DHT22;64115;50.170;8.242;2023-11-19T12:43:47;12.40;99.90
8261;DHT22;64115;50.170;8.242;2023-11-19T12:46:18;12.30;99.90
8261;DHT22;64115;50.170;8.242;2023-11-19T12:48:45;12.30;99.90
8261;DHT22;64115;50.170;8.242;2023-11-19T12:51:12;12.50;99.90
8261;DHT22;64115;50.170;8.242;2023-11-19T12:53:49;12.50;99.90
8261;DHT22;64115;50.170;8.242;2023-11-19T12:56:18;12.50;99.90
8261;DHT22;64115;50.170;8.242;2023-11-19T12:58:45;12.30;99.90
8261;DHT22;64115;50.170;8.242;2023-11-19T13:01:16;12.20;99.90
8261;DHT22;64115;50.170;8.242;2023-11-19T13:03:43;12.10;99.90
8261;DHT22;64115;50.170;8.242;2023-11-19T13:06:11;12.00;99.90
8261;DHT22;64115;50.170;8.242;2023-11-19T13:08:38;12.00;99.90
8261;DHT22;64115;50.170;8.242;2023-11-19T13:11:08;12.00;99.90
8261;DHT22;64115;50.170;8.242;2023-11-19T13:13:59;12.00;99.90
8261;DHT22;64115;50.170;8.242;2023-11-19T13:16:27;11.80;99.90
8261;DHT22;64115;50.170;8.242;2023-11-19T13:18:54;11.80;99.90
8261;DHT22;64115;50.170;8.242;2023-11-19T13:21:22;11.70;99.90
8261;DHT22;64115;50.170;8.242;2023-11-19T13:23:49;11.80;99.90
8261;DHT22;64115;50.170;8.242;2023-11-19T13:26:17;11.70;99.90
8261;DHT22;64115;50.170;8.242;2023-11-19T13:28:44;11.60;99.90
8261;DHT22;64115;50.170;8.242;2023-11-19T13:31:11;11.50;99.90
8261;DHT22;64115;50.170;8.242;2023-11-19T13:33:38;11.50;99.90
8261;DHT22;64115;50.170;8.242;2023-11-19T13:36:05;11.50;99.90
8261;DHT22;64115;50.170;8.242;2023-11-19T13:38:33;11.40;99.90
8261;DHT22;64115;50.170;8.242;2023-11-19T13:41:00;11.40;99.90
8261;DHT22;64115;50.170;8.242;2023-11-19T13:43:29;11.40;99.90
8261;DHT22;64115;50.170;8.242;2023-11-19T13:45:55;11.40;99.90
8261;DHT22;64115;50.170;8.242;2023-11-19T13:48:24;11.30;99.90
8261;DHT22;64115;50.170;8.242;2023-11-19T13:50:52;11.30;99.90
8261;DHT22;64115;50.170;8.242;2023-11-19T13:53:18;11.30;99.90
8261;DHT22;64115;50.170;8.242;2023-11-19T13:55:45;11.30;99.90
8261;DHT22;64115;50.170;8.242;2023-11-19T13:58:13;11.20;99.90
8261;DHT22;64115;50.170;8.242;2023-11-19T14:00:41;11.10;99.90
8261;DHT22;64115;50.170;8.242;2023-11-19T14:03:08;11.10;99.90
8261;DHT22;64115;50.170;8.242;2023-11-19T14:05:36;11.00;99.90
8261;DHT22;64115;50.170;8.242;2023-11-19T14:08:02;11.00;99.90
8261;DHT22;64115;50.170;8.242;2023-11-19T14:10:37;11.00;99.90
8261;DHT22;64115;50.170;8.242;2023-11-19T14:13:04;11.00;99.90
8261;DHT22;64115;50.170;8.242;2023-11-19T14:15:31;11.00;99.90
8261;DHT22;64115;50.170;8.242;2023-11-19T14:17:59;11.00;99.90
8261;DHT22;64115;50.170;8.242;2023-11-19T14:20:26;10.90;99.90
8261;DHT22;64115;50.170;8.242;2023-11-19T14:22:53;11.00;99.90
8261;DHT22;64115;50.170;8.242;2023-11-19T14:25:19;11.00;99.90
8261;DHT22;64115;50.170;8.242;2023-11-19T14:27:47;10.90;99.90
8261;DHT22;64115;50.170;8.242;2023-11-19T14:30:14;10.90;99.90
8261;DHT22;64115;50.170;8.242;2023-11-19T14:32:42;10.80;99.90
8261;DHT22;64115;50.170;8.242;2023-11-19T14:35:12;10.80;99.90
8261;DHT22;64115;50.170;8.242;2023-11-19T14:37:39;10.70;99.90
8261;DHT22;64115;50.170;8.242;2023-11-19T14:40:07;10.70;99.90
8261;DHT22;64115;50.170;8.242;2023-11-19T14:42:37;10.60;99.90
8261;DHT22;64115;50.170;8.242;2023-11-19T14:45:05;10.60;99.90
8261;DHT22;64115;50.170;8.242;2023-11-19T14:47:32;10.60;99.90
8261;DHT22;64115;50.170;8.242;2023-11-19T14:49:59;10.50;99.90
8261;DHT22;64115;50.170;8.242;2023-11-19T14:52:27;10.50;99.90
8261;DHT22;64115;50.170;8.242;2023-11-19T14:54:54;10.40;99.90
8261;DHT22;64115;50.170;8.242;2023-11-19T14:57:22;10.40;99.90
8261;DHT22;64115;50.170;8.242;2023-11-19T14:59:48;10.30;99.90
8261;DHT22;64115;50.170;8.242;2023-11-19T15:02:15;10.20;99.90
8261;DHT22;64115;50.170;8.242;2023-11-19T15:04:42;10.20;99.90
8261;DHT22;64115;50.170;8.242;2023-11-19T15:07:09;10.20;99.90
8261;DHT22;64115;50.170;8.242;2023-11-19T15:09:38;10.20;99.90
8261;DHT22;64115;50.170;8.242;2023-11-19T15:12:05;10.20;99.90
8261;DHT22;64115;50.170;8.242;2023-11-19T15:14:32;10.10;99.90
8261;DHT22;64115;50.170;8.242;2023-11-19T15:16:59;10.10;99.90
8261;DHT22;64115;50.170;8.242;2023-11-19T15:19:26;10.00;99.90
8261;DHT22;64115;50.170;8.242;2023-11-19T15:21:53;10.00;99.90
8261;DHT22;64115;50.170;8.242;2023-11-19T15:24:20;10.00;99.90
8261;DHT22;64115;50.170;8.242;2023-11-19T15:26:49;9.90;99.90
8261;DHT22;64115;50.170;8.242;2023-11-19T15:29:15;9.80;99.90
8261;DHT22;64115;50.170;8.242;2023-11-19T15:31:42;9.80;99.90
8261;DHT22;64115;50.170;8.242;2023-11-19T15:34:09;9.70;99.90
8261;DHT22;64115;50.170;8.242;2023-11-19T15:36:36;9.60;99.90
8261;DHT22;64115;50.170;8.242;2023-11-19T15:39:03;9.60;99.90
8261;DHT22;64115;50.170;8.242;2023-11-19T15:41:31;9.50;99.90
8261;DHT22;64115;50.170;8.242;2023-11-19T15:43:59;9.50;99.90
8261;DHT22;64115;50.170;8.242;2023-11-19T15:46:29;9.50;99.90
8261;DHT22;64115;50.170;8.242;2023-11-19T15:48:55;9.40;99.90
8261;DHT22;64115;50.170;8.242;2023-11-19T15:51:22;9.40;99.90
8261;DHT22;64115;50.170;8.242;2023-11-19T15:53:49;9.30;99.90
8261;DHT22;64115;50.170;8.242;2023-11-19T15:56:15;9.30;99.90
8261;DHT22;64115;50.170;8.242;2023-11-19T15:58:42;9.30;99.90
8261;DHT22;64115;50.170;8.242;2023-11-19T16:01:10;9.30;99.90
8261;DHT22;64115;50.170;8.242;2023-11-19T16:03:38;9.30;99.90
8261;DHT22;64115;50.170;8.242;2023-11-19T16:06:05;9.20;99.90
8261;DHT22;64115;50.170;8.242;2023-11-19T16:08:32;9.20;99.90